createdAt,value
2023-03-25T00:04:27.167Z,63.86
2023-03-25T00:09:28.682Z,64.43
2023-03-25T00:14:29.524Z,63.95
2023-03-25T00:19:32.075Z,63.65
2023-03-25T00:24:32.712Z,64.32
2023-03-25T00:29:33.567Z,63.06
2023-03-25T00:34:41.664Z,63.08
2023-03-25T00:39:42.327Z,64.54
2023-03-25T00:44:43.493Z,65.20
2023-03-25T00:49:45.464Z,63.69
2023-03-25T00:54:46.567Z,64.12
2023-03-25T00:59:47.266Z,65.23
2023-03-25T01:04:50.963Z,64.61
2023-03-25T01:09:51.769Z,64.13
2023-03-25T01:14:53.353Z,64.55
2023-03-25T01:19:55.662Z,64.70
2023-03-25T01:24:56.405Z,64.16
2023-03-25T01:29:57.188Z,64.20
2023-03-25T01:34:59.154Z,65.16
2023-03-25T01:39:59.811Z,64.74
2023-03-25T01:45:21.828Z,65.83
2023-03-25T01:50:23.839Z,64.26
2023-03-25T01:55:27.382Z,64.35
2023-03-25T02:00:28.222Z,64.04
2023-03-25T02:05:37.424Z,64.86
2023-03-25T02:10:38.500Z,63.86
2023-03-25T02:15:52.217Z,65.07
2023-03-25T02:21:31.060Z,63.69
2023-03-25T02:26:56.024Z,63.81
2023-03-25T02:32:13.252Z,64.03
2023-03-25T02:37:40.379Z,63.46
2023-03-25T02:42:49.772Z,62.46
2023-03-25T02:47:53.838Z,63.47
2023-03-25T02:52:58.186Z,63.48
2023-03-25T02:58:03.948Z,63.28
2023-03-25T03:03:07.940Z,63.96
2023-03-25T03:08:25.136Z,64.35
2023-03-25T03:13:38.928Z,64.22
2023-03-25T03:18:46.264Z,64.20
2023-03-25T03:23:56.596Z,64.51
2023-03-25T03:29:08.497Z,64.46
2023-03-25T03:34:14.738Z,64.58
2023-03-25T03:39:20.762Z,65.20
2023-03-25T03:44:30.984Z,63.90
2023-03-25T03:49:38.287Z,65.19
2023-03-25T03:54:44.988Z,65.36
2023-03-25T03:59:57.604Z,64.71
2023-03-25T04:05:00.681Z,64.92
2023-03-25T04:10:08.449Z,64.13
2023-03-25T04:15:11.728Z,63.41
2023-03-25T04:20:16.125Z,62.63
2023-03-25T04:25:16.780Z,62.48
2023-03-25T04:30:19.195Z,63.55
2023-03-25T04:35:21.156Z,63.66
2023-03-25T04:40:22.029Z,63.54
2023-03-25T04:45:25.342Z,64.04
2023-03-25T04:50:28.328Z,63.92
2023-03-25T04:55:30.054Z,63.87
2023-03-25T05:00:32.043Z,62.91
2023-03-25T05:05:32.730Z,62.81
2023-03-25T05:10:34.412Z,62.00
2023-03-25T05:15:39.564Z,61.91
2023-03-25T05:20:42.556Z,61.55
2023-03-25T05:25:43.871Z,61.37
2023-03-25T05:30:47.269Z,62.04
2023-03-25T05:35:48.131Z,61.38
2023-03-25T05:40:49.747Z,61.26
2023-03-25T05:45:51.970Z,60.86
2023-03-25T05:50:56.550Z,60.86
2023-03-25T05:55:57.604Z,59.41
2023-03-25T06:01:03.084Z,58.57
2023-03-25T06:06:05.530Z,57.07
2023-03-25T06:11:06.928Z,57.05
2023-03-25T06:16:09.967Z,56.90
2023-03-25T06:21:11.460Z,58.70
2023-03-25T06:26:12.147Z,59.25
2023-03-25T06:31:16.978Z,60.23
2023-03-25T06:36:20.360Z,62.21
2023-03-25T06:41:21.906Z,62.00
2023-03-25T06:46:31.896Z,60.88
2023-03-25T06:51:44.497Z,61.12
2023-03-25T06:56:45.168Z,60.13
2023-03-25T07:01:47.149Z,58.35
2023-03-25T07:06:47.880Z,57.74
2023-03-25T07:11:48.901Z,57.44
2023-03-25T07:16:51.020Z,56.92
2023-03-25T07:21:51.751Z,56.44
2023-03-25T07:26:52.397Z,56.22
2023-03-25T07:31:58.269Z,55.41
2023-03-25T07:36:59.533Z,54.49
2023-03-25T07:42:00.176Z,54.19
2023-03-25T07:47:37.475Z,52.88
2023-03-25T07:52:38.235Z,54.26
2023-03-25T07:57:43.469Z,55.01
2023-03-25T08:02:45.759Z,55.85
2023-03-25T08:07:48.703Z,58.00
2023-03-25T08:12:53.415Z,59.49
2023-03-25T08:17:55.481Z,60.82
2023-03-25T08:22:58.458Z,62.69
2023-03-25T08:27:59.113Z,63.59
2023-03-25T08:33:01.279Z,64.46
2023-03-25T08:38:05.198Z,64.85
2023-03-25T08:43:07.454Z,69.83
2023-03-25T08:48:09.589Z,77.20
2023-03-25T08:53:10.373Z,79.00
2023-03-25T08:58:11.140Z,80.59
2023-03-25T09:03:13.288Z,79.65
2023-03-25T09:08:14.212Z,78.25
2023-03-25T09:13:14.947Z,77.05
2023-03-25T09:18:17.406Z,78.01
2023-03-25T09:23:18.498Z,76.60
2023-03-25T09:28:19.165Z,75.87
2023-03-25T09:33:21.180Z,76.50
2023-03-25T09:38:22.334Z,76.95
2023-03-25T09:43:35.270Z,77.22
2023-03-25T09:48:39.068Z,77.68
2023-03-25T09:53:45.664Z,78.44
2023-03-25T09:58:48.090Z,77.64
2023-03-25T10:03:59.658Z,75.59
2023-03-25T10:09:21.343Z,76.27
2023-03-25T10:14:28.462Z,75.58
2023-03-25T10:19:51.030Z,74.69
2023-03-25T10:24:55.656Z,75.73
2023-03-25T10:30:02.108Z,73.25
2023-03-25T10:35:07.978Z,73.26
2023-03-25T10:40:19.684Z,69.57
2023-03-25T10:45:24.494Z,67.56
2023-03-25T10:50:27.177Z,66.36
2023-03-25T10:55:32.945Z,63.98
2023-03-25T11:00:34.219Z,60.90
2023-03-25T11:05:36.525Z,58.81
2023-03-25T11:10:37.655Z,58.05
2023-03-25T11:15:40.436Z,56.25
2023-03-25T11:20:48.999Z,56.15
2023-03-25T11:25:49.949Z,52.96
2023-03-25T11:31:24.705Z,54.30
2023-03-25T11:36:29.947Z,58.64
2023-03-25T11:41:33.909Z,67.23
2023-03-25T11:46:42.643Z,68.71
2023-03-25T11:51:44.856Z,70.33
2023-03-25T11:56:49.731Z,62.96
2023-03-25T12:01:52.736Z,62.72
2023-03-25T12:06:57.886Z,60.34
2023-03-25T12:12:23.109Z,58.47
2023-03-25T12:17:38.370Z,57.66
2023-03-25T12:22:54.594Z,54.75
2023-03-25T12:28:09.866Z,50.45
2023-03-25T12:33:28.210Z,48.76
2023-03-25T12:38:42.984Z,49.88
2023-03-25T12:44:02.333Z,49.99
2023-03-25T12:49:16.912Z,50.29
2023-03-25T12:54:32.137Z,52.37
2023-03-25T13:00:08.071Z,56.66
2023-03-25T13:05:18.908Z,59.39
2023-03-25T13:10:22.710Z,55.01
2023-03-25T13:15:27.558Z,55.48
2023-03-25T13:20:32.852Z,56.16
2023-03-25T13:25:43.370Z,52.70
2023-03-25T13:30:47.717Z,50.90
2023-03-25T13:35:54.649Z,49.56
2023-03-25T13:41:09.511Z,50.64
2023-03-25T13:46:13.471Z,51.36
2023-03-25T13:51:14.188Z,50.43
2023-03-25T13:56:47.881Z,50.37
2023-03-25T14:02:11.436Z,51.05
2023-03-25T14:07:49.185Z,50.29
2023-03-25T14:12:56.501Z,48.77
2023-03-25T14:17:58.009Z,47.99
2023-03-25T14:23:02.978Z,47.05
2023-03-25T14:28:05.985Z,45.60
2023-03-25T14:33:06.673Z,47.05
2023-03-25T14:38:53.122Z,46.18
2023-03-25T14:44:12.213Z,46.92
2023-03-25T14:49:21.151Z,69.90
2023-03-25T14:54:30.642Z,74.57
2023-03-25T14:59:36.944Z,76.68
2023-03-25T15:04:40.170Z,75.81
2023-03-25T15:09:50.961Z,74.95
2023-03-25T15:14:57.321Z,72.04
2023-03-25T15:20:28.952Z,71.20
2023-03-25T15:25:30.030Z,69.50
2023-03-25T15:31:10.349Z,69.37
2023-03-25T15:36:31.150Z,65.71
2023-03-25T15:42:13.145Z,64.17
2023-03-25T15:47:45.308Z,63.60
2023-03-25T15:53:41.480Z,60.54
2023-03-25T15:58:52.963Z,57.59
2023-03-25T16:04:01.190Z,57.89
2023-03-25T16:09:02.949Z,57.80
2023-03-25T16:14:06.660Z,56.83
2023-03-25T16:19:12.866Z,56.64
2023-03-25T16:24:14.289Z,56.07
2023-03-25T16:29:20.360Z,55.81
2023-03-25T16:34:22.565Z,56.13
2023-03-25T16:39:26.010Z,54.99
2023-03-25T16:44:27.142Z,56.01
2023-03-25T16:49:32.808Z,56.90
2023-03-25T16:54:37.742Z,56.73
2023-03-25T16:59:39.150Z,55.90
2023-03-25T17:04:42.163Z,55.94
2023-03-25T17:09:44.896Z,56.17
2023-03-25T17:14:48.313Z,57.99
2023-03-25T17:19:53.246Z,59.28
2023-03-25T17:24:56.442Z,59.66
2023-03-25T17:29:59.939Z,60.53
2023-03-25T17:35:06.791Z,60.45
2023-03-25T17:40:11.666Z,61.72
2023-03-25T17:45:15.121Z,60.70
2023-03-25T17:50:19.127Z,61.43
2023-03-25T17:55:19.763Z,61.83
2023-03-25T18:00:22.038Z,61.52
2023-03-25T18:05:24.305Z,61.48
2023-03-25T18:10:26.771Z,61.30
2023-03-25T18:15:28.330Z,62.29
2023-03-25T18:20:32.789Z,61.80
2023-03-25T18:25:34.119Z,61.60
2023-03-25T18:30:40.594Z,60.01
2023-03-25T18:35:42.923Z,61.18
2023-03-25T18:40:43.662Z,60.08
2023-03-25T18:45:44.846Z,59.63
2023-03-25T18:50:52.581Z,59.02
2023-03-25T18:55:54.635Z,59.94
2023-03-25T19:00:56.109Z,60.50
2023-03-25T19:06:00.100Z,60.89
2023-03-25T19:11:08.400Z,59.73
2023-03-25T19:16:21.024Z,60.64
2023-03-25T19:21:23.591Z,62.23
2023-03-25T19:26:24.287Z,61.91
2023-03-25T19:31:25.475Z,62.33
2023-03-25T19:36:27.526Z,62.23
2023-03-25T19:41:28.247Z,62.36
2023-03-25T19:46:31.627Z,61.95
2023-03-25T19:51:33.856Z,59.77
2023-03-25T19:56:34.604Z,59.68
2023-03-25T20:01:36.363Z,61.38
2023-03-25T20:06:38.699Z,63.44
2023-03-25T20:11:39.900Z,64.97
2023-03-25T20:16:40.826Z,63.19
2023-03-25T20:21:42.978Z,62.92
2023-03-25T20:26:43.650Z,64.48
2023-03-25T20:31:44.589Z,66.54
2023-03-25T20:36:46.743Z,66.43
2023-03-25T20:41:47.524Z,66.31
2023-03-25T20:46:49.790Z,66.09
2023-03-25T20:51:54.279Z,66.56
2023-03-25T20:56:55.242Z,66.40
2023-03-25T21:01:56.078Z,67.96
2023-03-25T21:06:58.257Z,69.02
2023-03-25T21:11:58.938Z,69.42
2023-03-25T21:16:59.676Z,69.32
2023-03-25T21:22:01.692Z,68.47
2023-03-25T21:27:02.707Z,69.05
2023-03-25T21:32:03.449Z,68.83
2023-03-25T21:37:05.514Z,69.09
2023-03-25T21:42:09.817Z,69.11
2023-03-25T21:47:11.974Z,69.11
2023-03-25T21:52:14.041Z,68.74
2023-03-25T21:57:14.810Z,68.42
2023-03-25T22:02:17.135Z,67.94
2023-03-25T22:07:19.146Z,66.31
2023-03-25T22:12:19.938Z,65.09
2023-03-25T22:17:20.612Z,63.63
2023-03-25T22:22:23.154Z,63.44
2023-03-25T22:27:24.038Z,62.74
2023-03-25T22:32:27.298Z,62.83
2023-03-25T22:37:29.974Z,62.70
2023-03-25T22:42:31.285Z,63.06
2023-03-25T22:47:31.969Z,62.42
2023-03-25T22:52:33.978Z,62.12
2023-03-25T22:57:36.089Z,61.96
2023-03-25T23:02:37.113Z,62.19
2023-03-25T23:07:39.167Z,63.20
2023-03-25T23:12:39.846Z,62.81
2023-03-25T23:17:40.600Z,64.38
2023-03-25T23:22:42.613Z,65.22
2023-03-25T23:27:45.040Z,66.90
2023-03-25T23:32:45.731Z,67.48
2023-03-25T23:37:50.245Z,70.20
2023-03-25T23:42:51.669Z,71.17
2023-03-25T23:47:52.428Z,72.21
2023-03-25T23:52:55.981Z,73.29
2023-03-25T23:57:56.687Z,72.71
